Big Bear Station Historical Data
Daily Summary for May 30, 2019 Units:  English    Metric   Both
Next Day »
Daily Weekly Monthly Yearly Custom
  High: Low: Average:
Temperature: 68.4 °F 36.5 °F 52 °F
Dew Point: 47.1 °F 33.6 °F 39.7 °F
Humidity: 92% 37% 66%
Wind Speed: 10.4mph 0mph 1.6mph
Wind Gust: -999mph - -
Wind- - WSW
Pressure: 23.49 in 23.45 in -
Precipitation: 0 in    
Historical Graphs
 
 
Tabular Data for May 30, 2019
Time Temperature Dew Point Pressure Wind Wind Speed Wind Gust Humidity Rainfall Rate (Hourly)
00:04 41.5 °F 35.8 °F 23.46 in Calm   -999 mph 80% 0.00 in
00:20 41.2 °F 35.5 °F 23.46 in Calm   -999 mph 80% 0.00 in
00:35 40.8 °F 35.4 °F 23.46 in Calm   -999 mph 81% 0.00 in
00:50 40.6 °F 36.1 °F 23.46 in Calm   -999 mph 84% 0.00 in
01:05 40.1 °F 35.7 °F 23.46 in Calm   -999 mph 84% 0.00 in
01:20 39.9 °F 35.8 °F 23.46 in Calm   -999 mph 85% 0.00 in
01:36 39.6 °F 35.8 °F 23.45 in Calm   -999 mph 86% 0.00 in
01:51 39.2 °F 35.1 °F 23.46 in Calm   -999 mph 85% 0.00 in
02:06 38.8 °F 34.4 °F 23.45 in Calm   -999 mph 84% 0.00 in
02:21 38.7 °F 34.3 °F 23.45 in Calm   -999 mph 84% 0.00 in
02:36 38.5 °F 34.1 °F 23.45 in Calm   -999 mph 84% 0.00 in
02:52 38.1 °F 34.3 °F 23.45 in Calm   -999 mph 86% 0.00 in
03:07 37.8 °F 34.3 °F 23.45 in Calm   -999 mph 87% 0.00 in
03:22 37.8 °F 34.3 °F 23.45 in Calm   -999 mph 87% 0.00 in
03:37 37.6 °F 34.1 °F 23.45 in South 1.7 mph -999 mph 87% 0.00 in
03:53 37.4 °F 33.9 °F 23.45 in Calm   -999 mph 87% 0.00 in
04:08 37.2 °F 34 °F 23.45 in Calm   -999 mph 88% 0.00 in
04:23 37 °F 34.1 °F 23.45 in Calm   -999 mph 89% 0.00 in
04:38 37 °F 34.1 °F 23.45 in Calm   -999 mph 89% 0.00 in
04:53 36.9 °F 33.7 °F 23.45 in Calm   -999 mph 88% 0.00 in
05:09 36.7 °F 33.8 °F 23.45 in Calm   -999 mph 89% 0.00 in
05:24 36.7 °F 33.8 °F 23.45 in Calm   -999 mph 89% 0.00 in
05:39 36.5 °F 33.6 °F 23.45 in Calm   -999 mph 89% 0.00 in
05:54 36.5 °F 33.6 °F 23.45 in Calm   -999 mph 89% 0.00 in
06:09 36.7 °F 34.3 °F 23.46 in Calm   -999 mph 91% 0.00 in
06:25 36.5 °F 34.1 °F 23.46 in Calm   -999 mph 91% 0.00 in
06:40 36.9 °F 34.5 °F 23.46 in Calm   -999 mph 91% 0.00 in
06:55 37 °F 34.9 °F 23.46 in Calm   -999 mph 92% 0.00 in
07:10 38.1 °F 35.7 °F 23.46 in Calm   -999 mph 91% 0.00 in
07:25 39 °F 36.6 °F 23.46 in Calm   -999 mph 91% 0.00 in
07:41 40.3 °F 38.2 °F 23.46 in Calm   -999 mph 92% 0.00 in
07:56 42.3 °F 39 °F 23.46 in Calm   -999 mph 88% 0.00 in
08:11 44.1 °F 39.6 °F 23.47 in Calm   -999 mph 84% 0.00 in
08:26 48.4 °F 39.1 °F 23.46 in Calm   -999 mph 70% 0.00 in
08:41 51.6 °F 38.2 °F 23.47 in Calm   -999 mph 60% 0.00 in
08:57 53.6 °F 38.3 °F 23.48 in West 2.7 mph -999 mph 56% 0.00 in
09:12 55 °F 37.7 °F 23.47 in Calm   -999 mph 52% 0.00 in
09:27 56.5 °F 37.6 °F 23.48 in South 2.2 mph -999 mph 49% 0.00 in
09:42 57.9 °F 38.9 °F 23.48 in Calm   -999 mph 49% 0.00 in
09:57 58.6 °F 40 °F 23.48 in West 3.7 mph -999 mph 50% 0.00 in
10:13 59 °F 38.8 °F 23.48 in NW 1.7 mph -999 mph 47% 0.00 in
10:29 59.5 °F 39.3 °F 23.48 in SSW 4.7 mph -999 mph 47% 0.00 in
10:44 60.6 °F 40.3 °F 23.48 in South 3.2 mph -999 mph 47% 0.00 in
10:59 61.5 °F 40 °F 23.48 in NNW 2.2 mph -999 mph 45% 0.00 in
11:14 61.9 °F 39.7 °F 23.48 in SE 3.7 mph -999 mph 44% 0.00 in
11:30 63.5 °F 40.6 °F 23.48 in NNW 1.1 mph -999 mph 43% 0.00 in
11:45 64.2 °F 40.6 °F 23.49 in SSE 2.2 mph -999 mph 42% 0.00 in
12:00 65.1 °F 40.8 °F 23.49 in NW 4.2 mph -999 mph 41% 0.00 in
12:15 65.5 °F 41.2 °F 23.49 in SE 4.2 mph -999 mph 41% 0.00 in
12:31 66.6 °F 40.2 °F 23.48 in West 3.7 mph -999 mph 38% 0.00 in
12:46 67.3 °F 41.5 °F 23.48 in NNW 4.7 mph -999 mph 39% 0.00 in
13:01 66.7 °F 41 °F 23.48 in WNW 4.7 mph -999 mph 39% 0.00 in
13:17 66.6 °F 40.2 °F 23.48 in East 1.1 mph -999 mph 38% 0.00 in
13:32 68.4 °F 41.8 °F 23.48 in North 5.8 mph -999 mph 38% 0.00 in
13:47 67.6 °F 40.4 °F 23.47 in SSW 4.2 mph -999 mph 37% 0.00 in
14:03 66.7 °F 40.3 °F 23.47 in NNW 4.2 mph -999 mph 38% 0.00 in
14:18 66.7 °F 40.3 °F 23.47 in South 3.7 mph -999 mph 38% 0.00 in
14:33 67.8 °F 41.9 °F 23.47 in West 3.7 mph -999 mph 39% 0.00 in
14:48 67.6 °F 43.1 °F 23.46 in WSW 4.7 mph -999 mph 41% 0.00 in
15:04 67.5 °F 44.2 °F 23.46 in North 6.8 mph -999 mph 43% 0.00 in
15:19 68 °F 44.1 °F 23.46 in SSW 3.2 mph -999 mph 42% 0.00 in
15:34 66.9 °F 44.3 °F 23.46 in NNW 6.3 mph -999 mph 44% 0.00 in
15:49 65.5 °F 43.6 °F 23.46 in South 4.2 mph -999 mph 45% 0.00 in
16:04 64.4 °F 43.7 °F 23.46 in West 10.4 mph -999 mph 47% 0.00 in
16:20 64.8 °F 44.1 °F 23.46 in NNE 4.2 mph -999 mph 47% 0.00 in
16:35 64.9 °F 44.2 °F 23.46 in NNW 6.8 mph -999 mph 47% 0.00 in
16:50 66.9 °F 45.4 °F 23.45 in NW 7.8 mph -999 mph 46% 0.00 in
17:05 65.7 °F 46 °F 23.45 in North 2.7 mph -999 mph 49% 0.00 in
17:20 67.8 °F 46.3 °F 23.45 in NE 3.7 mph -999 mph 46% 0.00 in
17:36 66.6 °F 46.3 °F 23.45 in SSE 2.7 mph -999 mph 48% 0.00 in
17:51 66.6 °F 46.3 °F 23.45 in Calm   -999 mph 48% 0.00 in
18:06 66.9 °F 47.1 °F 23.45 in East 3.7 mph -999 mph 49% 0.00 in
18:21 64.2 °F 46.7 °F 23.45 in SE 1.7 mph -999 mph 53% 0.00 in
18:36 62.6 °F 46.2 °F 23.45 in North 1.7 mph -999 mph 55% 0.00 in
18:52 61.7 °F 45.8 °F 23.45 in West 1.1 mph -999 mph 56% 0.00 in
19:07 60.1 °F 46.2 °F 23.45 in Calm   -999 mph 60% 0.00 in
19:22 57.6 °F 45.5 °F 23.45 in NW 2.7 mph -999 mph 64% 0.00 in
19:37 55.2 °F 44.8 °F 23.46 in NW 2.2 mph -999 mph 68% 0.00 in
19:53 53.6 °F 44.8 °F 23.46 in NW 3.2 mph -999 mph 72% 0.00 in
20:09 52.7 °F 44.6 °F 23.46 in Calm   -999 mph 74% 0.00 in
20:24 51.6 °F 44.3 °F 23.46 in Calm   -999 mph 76% 0.00 in
20:39 50.9 °F 44.6 °F 23.46 in Calm   -999 mph 79% 0.00 in
20:54 50.2 °F 43.9 °F 23.47 in Calm   -999 mph 79% 0.00 in
21:09 49.8 °F 42.5 °F 23.47 in Calm   -999 mph 76% 0.00 in
21:25 49.3 °F 41.7 °F 23.47 in Calm   -999 mph 75% 0.00 in
21:40 48.9 °F 42.3 °F 23.48 in Calm   -999 mph 78% 0.00 in
21:55 48.4 °F 42.8 °F 23.48 in Calm   -999 mph 81% 0.00 in
22:10 47.8 °F 41.6 °F 23.48 in Calm   -999 mph 79% 0.00 in
22:26 47.3 °F 39.8 °F 23.48 in Calm   -999 mph 75% 0.00 in
22:41 46.9 °F 40.1 °F 23.48 in Calm   -999 mph 77% 0.00 in
22:56 46.6 °F 38.8 °F 23.48 in Calm   -999 mph 74% 0.00 in
23:11 46.4 °F 39.6 °F 23.48 in Calm   -999 mph 77% 0.00 in
23:26 46.2 °F 40.4 °F 23.48 in Calm   -999 mph 80% 0.00 in
23:42 45.7 °F 38.9 °F 23.48 in Calm   -999 mph 77% 0.00 in
23:57 45.5 °F 39 °F 23.48 in Calm   -999 mph 78% 0.00 in
Big Bear CA Weather